Time;durP1;ratioP1;P1;durP2;ratioP2;P2;SDS_P1;SDS_P2;PMS_P1;PMS_P2;Temp;Humidity;BMP_temperature;BMP_pressure;BME280_temperature;BME280_humidity;BME280_pressure;Samples;Min_cycle;Max_cycle;Signal;HPM_P1;HPM_P2
2023/04/13 00:02:09;;;;;;;8.15;3.63;;;;;;;7.96;40.50;94199.56;5005829;28;20444;-80
2023/04/13 00:04:35;;;;;;;6.03;2.70;;;;;;;7.91;40.70;94194.66;5005469;28;20032;-81
2023/04/13 00:07:01;;;;;;;6.20;3.20;;;;;;;7.82;41.11;94197.28;5005030;28;20400;-79
2023/04/13 00:09:29;;;;;;;8.70;3.55;;;;;;;7.75;40.99;94196.72;5004265;28;20109;-79
2023/04/13 00:11:57;;;;;;;7.93;3.13;;;;;;;7.67;41.19;94196.91;5003633;28;20106;-79
2023/04/13 00:14:26;;;;;;;5.03;3.30;;;;;;;7.58;41.30;94207.00;5006049;28;20110;-80
2023/04/13 00:16:52;;;;;;;7.20;3.22;;;;;;;7.51;41.66;94205.19;5003594;28;20065;-79
2023/04/13 00:19:17;;;;;;;7.80;3.40;;;;;;;7.43;41.70;94212.09;5005810;28;20053;-79
2023/04/13 00:21:43;;;;;;;5.68;3.42;;;;;;;7.36;42.01;94218.53;5005224;28;20102;-80
2023/04/13 00:24:09;;;;;;;7.85;4.10;;;;;;;7.31;42.30;94226.50;4987144;28;20224;-80
2023/04/13 00:26:34;;;;;;;15.27;7.18;;;;;;;7.24;42.31;94223.97;5005480;28;20088;-79
2023/04/13 00:29:00;;;;;;;16.48;8.70;;;;;;;7.15;42.30;94221.84;5007440;28;20041;-79
2023/04/13 00:31:25;;;;;;;35.30;13.45;;;;;;;7.10;42.54;94227.81;5009165;28;20026;-79
2023/04/13 00:33:50;;;;;;;29.40;11.55;;;;;;;7.01;42.61;94220.25;5004769;28;20042;-80
2023/04/13 00:36:16;;;;;;;14.75;6.70;;;;;;;6.98;42.71;94220.34;5003768;28;20045;-79
2023/04/13 00:38:45;;;;;;;9.82;4.50;;;;;;;6.91;42.97;94216.59;5004455;28;20079;-79
2023/04/13 00:41:14;;;;;;;7.10;3.50;;;;;;;6.82;43.07;94215.69;5005248;28;20033;-78
2023/04/13 00:43:39;;;;;;;6.65;3.47;;;;;;;6.76;43.25;94204.50;5004949;28;20603;-80
2023/04/13 00:46:05;;;;;;;5.78;3.15;;;;;;;6.71;43.16;94207.00;5004596;28;20030;-78
2023/04/13 00:48:33;;;;;;;7.57;3.85;;;;;;;6.56;43.36;94215.56;5004993;28;20045;-78
2023/04/13 00:50:58;;;;;;;11.48;5.80;;;;;;;6.56;43.65;94214.78;4986706;28;20030;-79
2023/04/13 00:53:24;;;;;;;9.60;4.32;;;;;;;6.56;43.54;94220.25;5004234;28;20033;-79
2023/04/13 00:55:49;;;;;;;7.40;3.33;;;;;;;6.52;43.86;94209.41;5003140;28;20033;-79
2023/04/13 00:58:14;;;;;;;9.43;3.72;;;;;;;6.47;43.74;94212.66;5003486;28;20124;-80
2023/04/13 01:00:41;;;;;;;5.57;3.38;;;;;;;6.44;43.89;94210.03;5003213;28;20137;-79
2023/04/13 01:03:08;;;;;;;8.15;3.50;;;;;;;6.35;43.94;94211.38;5003163;28;20125;-79
2023/04/13 01:05:54;;;;;;;6.80;3.22;;;;;;;6.29;44.09;94217.78;5003125;28;20077;-78
2023/04/13 01:08:27;;;;;;;6.75;2.85;;;;;;;6.17;44.34;94207.53;5002625;28;20037;-80
2023/04/13 01:10:59;;;;;;;4.40;2.85;;;;;;;6.26;44.20;94215.91;5004147;28;20033;-79
2023/04/13 01:13:30;;;;;;;5.13;2.97;;;;;;;6.12;44.55;94214.28;5004634;28;20052;-79
2023/04/13 01:16:04;;;;;;;6.43;2.70;;;;;;;6.17;44.63;94218.47;5003536;28;20021;-78
2023/04/13 01:18:34;;;;;;;5.45;3.33;;;;;;;6.18;44.83;94226.22;5003215;28;20056;-78
2023/04/13 01:21:00;;;;;;;5.85;2.83;;;;;;;6.19;44.78;94224.25;4986769;28;20037;-78
2023/04/13 01:23:33;;;;;;;6.07;3.25;;;;;;;6.15;45.05;94229.81;4989364;28;20184;-79
2023/04/13 01:26:05;;;;;;;8.23;3.63;;;;;;;6.13;45.12;94235.66;5006260;28;20665;-79
2023/04/13 01:28:32;;;;;;;6.20;3.30;;;;;;;6.11;45.28;94226.38;5003608;28;20381;-78
2023/04/13 01:31:00;;;;;;;7.13;3.25;;;;;;;6.09;45.61;94220.59;5003001;28;20049;-79
2023/04/13 01:33:29;;;;;;;5.68;3.40;;;;;;;6.07;45.57;94220.22;5002574;28;20523;-78
2023/04/13 01:35:55;;;;;;;5.85;3.55;;;;;;;6.02;45.75;94216.06;5003013;28;20072;-78
2023/04/13 01:38:23;;;;;;;6.95;3.53;;;;;;;6.04;45.66;94227.31;5002504;28;20034;-79
2023/04/13 01:40:49;;;;;;;6.18;3.60;;;;;;;6.02;45.80;94223.47;5003451;28;20121;-78
2023/04/13 01:43:14;;;;;;;7.30;3.58;;;;;;;6.00;46.31;94214.94;5002416;28;20183;-78
2023/04/13 01:45:48;;;;;;;7.05;3.88;;;;;;;5.98;46.14;94218.09;5003458;28;20113;-78
2023/04/13 01:48:18;;;;;;;7.28;3.53;;;;;;;5.98;46.29;94220.06;5002444;28;20064;-78
2023/04/13 01:50:53;;;;;;;6.45;3.47;;;;;;;5.97;46.56;94213.06;5007291;28;20440;-78
2023/04/13 01:53:24;;;;;;;7.07;4.20;;;;;;;5.95;46.42;94212.72;5006216;28;20037;-80
2023/04/13 01:55:50;;;;;;;5.38;3.50;;;;;;;5.94;46.91;94208.47;4990390;28;20061;-79
2023/04/13 01:58:17;;;;;;;6.97;3.53;;;;;;;5.91;46.74;94212.81;5006550;28;20390;-78
2023/04/13 02:00:43;;;;;;;5.50;3.50;;;;;;;5.88;46.59;94208.16;5006350;28;20034;-78
2023/04/13 02:03:11;;;;;;;8.07;4.90;;;;;;;5.87;46.80;94212.09;5023275;28;20144;-78
2023/04/13 02:05:36;;;;;;;9.80;4.80;;;;;;;5.83;47.40;94212.16;5007392;28;20030;-79
2023/04/13 02:08:04;;;;;;;8.68;4.57;;;;;;;5.82;47.12;94215.31;5007327;28;20425;-79
2023/04/13 02:10:30;;;;;;;7.65;4.97;;;;;;;5.81;47.01;94213.78;5005835;28;20057;-79
2023/04/13 02:12:56;;;;;;;8.20;4.25;;;;;;;5.80;47.00;94223.16;5006117;28;20030;-79
2023/04/13 02:15:21;;;;;;;11.90;5.00;;;;;;;5.80;46.94;94229.38;5006237;28;20026;-78
2023/04/13 02:17:47;;;;;;;8.40;4.88;;;;;;;5.76;47.09;94225.19;5006218;28;20036;-79
2023/04/13 02:20:12;;;;;;;9.25;4.75;;;;;;;5.77;47.21;94232.19;5010799;28;20112;-78
2023/04/13 02:22:40;;;;;;;10.77;4.55;;;;;;;5.76;47.23;94227.91;5005795;28;20464;-79
2023/04/13 02:25:10;;;;;;;10.00;5.07;;;;;;;5.74;47.29;94235.75;5006304;28;20034;-78
2023/04/13 02:27:37;;;;;;;8.90;4.45;;;;;;;5.70;47.40;94224.16;4989508;28;20523;-79
2023/04/13 02:30:04;;;;;;;8.55;5.30;;;;;;;5.72;47.49;94235.41;5007199;28;20052;-79
2023/04/13 02:32:30;;;;;;;11.15;6.10;;;;;;;5.70;47.50;94235.06;5007041;28;20033;-79
2023/04/13 02:34:55;;;;;;;8.25;5.43;;;;;;;5.68;47.75;94232.75;5006718;28;20032;-81
2023/04/13 02:37:21;;;;;;;7.82;4.57;;;;;;;5.66;47.54;94240.59;5007516;28;20420;-79
2023/04/13 02:39:46;;;;;;;10.02;4.85;;;;;;;5.65;47.84;94235.56;5006629;28;20026;-78
2023/04/13 02:42:12;;;;;;;9.05;4.38;;;;;;;5.60;47.48;94226.69;5005977;28;20100;-79
2023/04/13 02:44:40;;;;;;;10.52;4.70;;;;;;;5.56;47.28;94242.38;5005348;28;20426;-79
2023/04/13 02:47:05;;;;;;;6.28;4.55;;;;;;;5.55;47.28;94242.75;5007007;28;20033;-79
2023/04/13 02:49:31;;;;;;;11.48;4.90;;;;;;;5.52;47.16;94233.47;5005295;28;20026;-78
2023/04/13 02:51:57;;;;;;;8.85;4.10;;;;;;;5.50;47.04;94241.28;5006768;28;20057;-78
2023/04/13 02:54:23;;;;;;;9.48;4.75;;;;;;;5.50;47.07;94237.81;5007192;28;20026;-78
2023/04/13 02:56:48;;;;;;;8.80;4.13;;;;;;;5.50;46.78;94245.97;5006485;28;20026;-79
2023/04/13 02:59:15;;;;;;;6.97;3.90;;;;;;;5.48;46.90;94251.09;5005754;28;20453;-80
2023/04/13 03:01:40;;;;;;;7.93;3.50;;;;;;;5.44;46.79;94248.44;5006064;28;20096;-78
2023/04/13 03:04:07;;;;;;;8.68;4.75;;;;;;;5.44;47.16;94253.88;5005370;28;20435;-78
2023/04/13 03:06:32;;;;;;;7.45;4.78;;;;;;;5.45;47.11;94260.91;5004566;28;20034;-81
2023/04/13 03:08:58;;;;;;;7.00;4.53;;;;;;;5.39;47.38;94257.13;5005112;28;20030;-81
2023/04/13 03:11:24;;;;;;;10.73;5.05;;;;;;;5.42;47.44;94261.72;5006762;28;20160;-79
2023/04/13 03:13:53;;;;;;;13.15;5.53;;;;;;;5.41;47.90;94262.91;5010125;28;20026;-78
2023/04/13 03:16:19;;;;;;;8.25;5.07;;;;;;;5.40;47.94;94261.38;5006079;28;20041;-79
2023/04/13 03:18:44;;;;;;;8.27;5.05;;;;;;;5.36;48.23;94265.34;5005922;28;20172;-79
2023/04/13 03:21:11;;;;;;;10.60;5.20;;;;;;;5.34;48.28;94268.50;5007580;28;20153;-79
2023/04/13 03:23:37;;;;;;;9.00;5.03;;;;;;;5.32;48.19;94271.63;5006147;28;20028;-79
2023/04/13 03:26:02;;;;;;;12.32;5.70;;;;;;;5.28;48.59;94264.72;5008280;28;20029;-78
2023/04/13 03:28:27;;;;;;;11.80;5.05;;;;;;;5.25;48.43;94274.50;5004794;28;20022;-79
2023/04/13 03:30:53;;;;;;;9.38;5.07;;;;;;;5.22;48.47;94272.63;5005759;28;20479;-78
2023/04/13 03:33:18;;;;;;;10.57;6.05;;;;;;;5.20;48.55;94277.72;5006616;28;20109;-80
2023/04/13 03:35:44;;;;;;;10.05;5.15;;;;;;;5.17;48.51;94272.34;5006243;28;20034;-78
2023/04/13 03:38:10;;;;;;;12.48;5.07;;;;;;;5.16;48.51;94271.56;5006590;28;20064;-79
2023/04/13 03:40:35;;;;;;;12.75;5.25;;;;;;;5.18;48.72;94273.88;5004235;28;20436;-79
2023/04/13 03:43:01;;;;;;;10.68;6.32;;;;;;;5.14;48.69;94267.72;5004820;28;20025;-78
2023/04/13 03:45:26;;;;;;;11.65;5.75;;;;;;;5.14;48.74;94271.22;5005873;28;20025;-79
2023/04/13 03:47:52;;;;;;;9.88;5.00;;;;;;;5.12;48.63;94279.03;5004077;28;20034;-79
2023/04/13 03:50:17;;;;;;;11.25;5.85;;;;;;;5.15;48.63;94271.97;5004419;28;20470;-79
2023/04/13 03:52:43;;;;;;;11.20;5.35;;;;;;;5.15;48.72;94275.47;5005184;28;20030;-78
2023/04/13 03:55:08;;;;;;;12.70;5.72;;;;;;;5.14;48.91;94273.16;5006304;28;20105;-79
2023/04/13 03:57:35;;;;;;;8.10;4.95;;;;;;;5.14;49.17;94270.44;5003913;28;20037;-78
2023/04/13 04:00:00;;;;;;;12.35;5.20;;;;;;;5.13;49.16;94274.34;5004814;28;20093;-79
2023/04/13 04:02:26;;;;;;;12.02;6.57;;;;;;;5.12;49.23;94278.28;5003994;28;20508;-79
2023/04/13 04:04:51;;;;;;;15.02;6.70;;;;;;;5.13;49.57;94277.09;5004291;28;20182;-79
2023/04/13 04:07:21;;;;;;;17.27;6.80;;;;;;;5.12;49.31;94281.75;5005469;28;20032;-78
2023/04/13 04:09:47;;;;;;;12.90;6.70;;;;;;;5.13;49.55;94293.44;5009746;28;20018;-77
2023/04/13 04:12:12;;;;;;;13.45;6.22;;;;;;;5.10;49.54;94291.53;5005292;28;20044;-79
2023/04/13 04:14:37;;;;;;;11.57;6.25;;;;;;;5.12;49.74;94273.59;5003662;28;20116;-79
2023/04/13 04:17:03;;;;;;;10.27;5.90;;;;;;;5.14;49.78;94281.34;5004290;28;20030;-78
2023/04/13 04:19:28;;;;;;;17.67;7.10;;;;;;;5.11;49.72;94282.19;5004906;28;20103;-79
2023/04/13 04:21:56;;;;;;;10.57;6.25;;;;;;;5.11;49.97;94279.47;5005215;28;20108;-78
2023/04/13 04:24:22;;;;;;;16.10;7.63;;;;;;;5.14;49.67;94282.09;5003729;28;20040;-78
2023/04/13 04:26:48;;;;;;;11.90;6.30;;;;;;;5.17;49.85;94288.69;5003401;28;20022;-78
2023/04/13 04:29:20;;;;;;;9.35;6.45;;;;;;;5.22;49.62;94290.94;5003738;28;20109;-79
2023/04/13 04:31:51;;;;;;;14.77;7.60;;;;;;;5.21;49.54;94292.88;5004591;28;20036;-80
2023/04/13 04:34:17;;;;;;;12.68;6.53;;;;;;;5.26;49.69;94288.91;5005948;28;20030;-78
2023/04/13 04:36:49;;;;;;;14.27;6.80;;;;;;;5.29;49.73;94304.41;5004990;28;20038;-80
2023/04/13 04:39:21;;;;;;;13.00;7.20;;;;;;;5.31;49.38;94300.06;5003664;28;20428;-78
2023/04/13 04:42:02;;;;;;;13.75;6.50;;;;;;;5.33;49.19;94305.91;5003264;28;20507;-80
2023/04/13 04:44:32;;;;;;;18.10;6.93;;;;;;;5.37;49.06;94308.53;5004729;28;20033;-78
2023/04/13 04:46:58;;;;;;;16.75;7.20;;;;;;;5.39;49.04;94311.63;5003856;28;20357;-80
2023/04/13 04:49:24;;;;;;;12.55;5.57;;;;;;;5.43;48.84;94306.09;5004744;28;20038;-80
2023/04/13 04:51:50;;;;;;;13.02;6.43;;;;;;;5.48;48.97;94313.78;5004073;28;20030;-80
2023/04/13 04:54:17;;;;;;;14.75;6.55;;;;;;;5.54;49.18;94315.59;5003255;28;20426;-79
2023/04/13 04:56:43;;;;;;;19.70;7.35;;;;;;;5.59;49.21;94309.66;5003441;28;20499;-79
2023/04/13 04:59:09;;;;;;;20.38;10.48;;;;;;;5.63;49.55;94306.88;5004004;28;20054;-78
2023/04/13 05:01:34;;;;;;;26.35;13.70;;;;;;;5.74;49.41;94309.41;5004574;28;20049;-78
2023/04/13 05:04:00;;;;;;;28.00;13.48;;;;;;;5.78;49.01;94308.13;5010081;28;20065;-78
2023/04/13 05:06:31;;;;;;;23.75;13.20;;;;;;;5.81;48.12;94298.34;5002943;28;20088;-79
2023/04/13 05:08:56;;;;;;;22.50;12.73;;;;;;;5.85;48.32;94301.78;4988001;28;20492;-79
2023/04/13 05:11:22;;;;;;;23.77;12.40;;;;;;;5.91;48.06;94304.75;5004461;28;20527;-80
2023/04/13 05:13:47;;;;;;;25.42;11.77;;;;;;;5.93;48.24;94311.38;5004902;28;20345;-80
2023/04/13 05:16:13;;;;;;;25.33;12.65;;;;;;;5.98;47.98;94301.91;4986645;28;20040;-80
2023/04/13 05:18:44;;;;;;;22.88;11.63;;;;;;;6.04;47.80;94306.44;5004646;28;20034;-80
2023/04/13 05:21:09;;;;;;;24.90;10.88;;;;;;;6.03;47.32;94293.22;5003114;28;20032;-80
2023/04/13 05:23:34;;;;;;;21.08;9.70;;;;;;;6.16;47.22;94293.34;5004433;28;20100;-79
2023/04/13 05:26:00;;;;;;;21.65;8.43;;;;;;;6.21;47.06;94296.34;5008421;28;20092;-80
2023/04/13 05:28:26;;;;;;;20.63;8.57;;;;;;;6.26;46.64;94304.03;5008222;28;20409;-79
2023/04/13 05:30:51;;;;;;;12.18;5.35;;;;;;;6.16;46.19;94290.63;5007532;28;20030;-80
2023/04/13 05:33:16;;;;;;;11.38;6.15;;;;;;;6.26;45.69;94298.56;5007873;28;20038;-80
2023/04/13 05:35:42;;;;;;;10.32;4.90;;;;;;;6.36;45.45;94302.22;5008355;28;20041;-80
2023/04/13 05:38:08;;;;;;;9.85;5.07;;;;;;;6.44;45.34;94298.16;5006629;28;20029;-80
2023/04/13 05:40:34;;;;;;;11.90;5.43;;;;;;;6.51;45.03;94303.44;5008267;28;20026;-80
2023/04/13 05:42:59;;;;;;;8.85;4.72;;;;;;;6.59;44.77;94299.34;5008426;28;20034;-80
2023/04/13 05:45:26;;;;;;;8.15;4.95;;;;;;;6.65;44.36;94288.69;5006657;28;20030;-78
2023/04/13 05:47:52;;;;;;;9.95;4.00;;;;;;;6.73;44.12;94289.28;5008913;28;20034;-79
2023/04/13 05:50:17;;;;;;;9.25;4.55;;;;;;;6.78;43.69;94297.75;5007713;28;20037;-79
2023/04/13 05:52:43;;;;;;;7.22;4.10;;;;;;;6.81;43.63;94304.31;5008391;28;20055;-80
2023/04/13 05:55:09;;;;;;;6.22;3.92;;;;;;;6.87;43.77;94299.84;5008007;28;20141;-81
2023/04/13 05:57:34;;;;;;;8.95;4.32;;;;;;;6.95;43.20;94282.09;5006585;28;20021;-80
2023/04/13 06:00:00;;;;;;;7.35;3.80;;;;;;;7.05;42.92;94288.47;5011610;28;20033;-79
2023/04/13 06:02:25;;;;;;;10.77;4.68;;;;;;;7.08;43.23;94296.59;5006360;28;20021;-81
2023/04/13 06:04:53;;;;;;;8.95;4.00;;;;;;;7.14;42.77;94300.34;5006947;28;20088;-80
2023/04/13 06:07:20;;;;;;;8.73;3.42;;;;;;;7.13;42.69;94296.09;5007314;28;20218;-80
2023/04/13 06:09:48;;;;;;;7.30;4.45;;;;;;;7.23;42.71;94299.75;5007040;28;20112;-79
2023/04/13 06:12:14;;;;;;;7.47;3.95;;;;;;;7.31;42.50;94297.59;5007312;28;20030;-79
2023/04/13 06:14:40;;;;;;;13.18;3.95;;;;;;;7.38;41.90;94303.63;5007783;28;20057;-80
2023/04/13 06:17:06;;;;;;;8.95;4.38;;;;;;;7.33;42.00;94308.84;5005897;28;20041;-80
2023/04/13 06:19:31;;;;;;;8.48;4.47;;;;;;;7.33;41.98;94306.13;5007188;28;20097;-80
2023/04/13 06:21:57;;;;;;;9.90;4.55;;;;;;;7.49;41.85;94311.53;5007747;28;20108;-80
2023/04/13 06:24:22;;;;;;;8.63;4.97;;;;;;;7.61;41.71;94304.59;5007002;28;20026;-80
2023/04/13 06:26:48;;;;;;;8.00;4.35;;;;;;;7.66;41.77;94310.28;5006390;28;20045;-80
2023/04/13 06:29:13;;;;;;;10.65;4.45;;;;;;;7.73;41.39;94304.63;5005522;28;20032;-80
2023/04/13 06:31:38;;;;;;;11.75;4.65;;;;;;;7.82;41.27;94298.53;5007913;28;20025;-80
2023/04/13 06:34:04;;;;;;;8.07;4.43;;;;;;;7.90;41.09;94305.31;5006862;28;20041;-80
2023/04/13 06:36:29;;;;;;;9.18;4.18;;;;;;;7.96;40.90;94305.53;5005229;28;20636;-80
2023/04/13 06:38:55;;;;;;;7.18;3.85;;;;;;;8.12;40.91;94307.44;5006896;28;20060;-80
2023/04/13 06:41:20;;;;;;;6.70;3.95;;;;;;;8.17;40.43;94304.16;5006924;28;20033;-80
2023/04/13 06:43:46;;;;;;;9.23;4.18;;;;;;;8.17;40.24;94304.94;5007960;28;20025;-80
2023/04/13 06:46:13;;;;;;;6.55;3.63;;;;;;;8.29;39.77;94310.88;5007212;28;20491;-80
2023/04/13 06:48:38;;;;;;;8.00;4.05;;;;;;;8.46;39.93;94304.88;5007450;28;20108;-81
2023/04/13 06:51:04;;;;;;;8.52;3.95;;;;;;;8.61;39.70;94305.22;5006822;28;20113;-80
2023/04/13 06:53:29;;;;;;;10.38;4.30;;;;;;;8.76;39.52;94303.53;5008291;28;20018;-79
2023/04/13 06:55:55;;;;;;;13.85;8.63;;;;;;;8.89;39.12;94302.75;5008545;28;20456;-81
2023/04/13 06:58:22;;;;;;;11.68;5.35;;;;;;;8.96;39.02;94302.53;5006401;28;20135;-79
2023/04/13 07:00:47;;;;;;;16.98;4.82;;;;;;;9.02;38.79;94298.03;5005764;28;20030;-81
2023/04/13 07:03:14;;;;;;;8.45;3.92;;;;;;;9.24;38.15;94301.59;4988720;28;20029;-80
2023/04/13 07:05:39;;;;;;;7.97;3.78;;;;;;;9.32;37.58;94293.88;5005547;28;20045;-80
2023/04/13 07:08:05;;;;;;;8.95;4.20;;;;;;;9.24;37.30;94295.34;5006581;28;20465;-80
2023/04/13 07:10:30;;;;;;;6.53;3.53;;;;;;;9.37;37.07;94301.56;5006826;28;20404;-81
2023/04/13 07:12:56;;;;;;;8.05;3.92;;;;;;;9.62;36.96;94302.66;5006714;28;20068;-80
2023/04/13 07:15:21;;;;;;;6.65;3.78;;;;;;;9.66;36.95;94297.81;5004907;28;20025;-80
2023/04/13 07:17:48;;;;;;;8.68;4.70;;;;;;;9.73;36.71;94303.81;4988554;28;20033;-80
2023/04/13 07:20:13;;;;;;;7.60;4.15;;;;;;;9.94;36.61;94305.03;5006013;28;20025;-82
2023/04/13 07:22:39;;;;;;;12.10;5.10;;;;;;;10.09;36.55;94297.03;5005239;28;20390;-79
2023/04/13 07:25:06;;;;;;;8.13;3.85;;;;;;;10.06;36.12;94301.44;5006122;28;20029;-80
2023/04/13 07:27:32;;;;;;;11.32;4.55;;;;;;;10.30;36.33;94290.00;5006569;28;20037;-80
2023/04/13 07:29:58;;;;;;;9.38;4.40;;;;;;;10.50;35.74;94295.13;5006156;28;20026;-80
2023/04/13 07:32:26;;;;;;;8.70;3.40;;;;;;;10.65;35.05;94296.09;5006068;28;20026;-81
2023/04/13 07:34:51;;;;;;;10.00;3.75;;;;;;;10.88;34.67;94292.81;5004471;28;20064;-82
2023/04/13 07:37:17;;;;;;;12.93;3.85;;;;;;;11.07;34.53;94288.16;5005944;28;20116;-80
2023/04/13 07:39:42;;;;;;;8.70;4.43;;;;;;;11.07;34.17;94287.38;5004398;28;20452;-81
2023/04/13 07:42:07;;;;;;;7.35;3.35;;;;;;;11.27;34.08;94287.69;5006341;28;20029;-80
2023/04/13 07:44:33;;;;;;;9.82;3.40;;;;;;;11.43;34.37;94281.91;5005068;28;20026;-80
2023/04/13 07:46:58;;;;;;;7.15;3.28;;;;;;;11.65;34.06;94276.25;5003570;28;20105;-80
2023/04/13 07:49:24;;;;;;;6.75;3.10;;;;;;;11.82;34.29;94276.75;5010956;28;20089;-82
2023/04/13 07:51:51;;;;;;;9.95;3.85;;;;;;;12.01;34.07;94280.22;5005913;28;20022;-81
2023/04/13 07:54:17;;;;;;;7.72;3.72;;;;;;;12.17;33.70;94273.63;5004523;28;20045;-81
2023/04/13 07:56:42;;;;;;;7.72;3.60;;;;;;;12.15;33.52;94270.53;5005465;28;20497;-81
2023/04/13 07:59:08;;;;;;;5.95;3.40;;;;;;;12.18;33.44;94272.38;5004221;28;20192;-81
2023/04/13 08:01:33;;;;;;;10.07;3.60;;;;;;;12.45;33.36;94268.78;5006039;28;20511;-80
2023/04/13 08:03:59;;;;;;;6.57;3.20;;;;;;;12.52;32.79;94273.97;5004235;28;20057;-82
2023/04/13 08:06:26;;;;;;;6.53;3.67;;;;;;;12.60;32.58;94272.38;5004841;28;20044;-81
2023/04/13 08:08:52;;;;;;;7.05;4.35;;;;;;;12.66;32.14;94270.53;5003879;28;20030;-81
2023/04/13 08:11:18;;;;;;;10.60;4.00;;;;;;;12.81;32.06;94267.09;5005900;28;20323;-81
2023/04/13 08:13:43;;;;;;;6.68;3.90;;;;;;;13.01;32.04;94259.00;5005228;28;20038;-82
2023/04/13 08:16:09;;;;;;;7.95;3.30;;;;;;;13.27;31.74;94262.09;5005741;28;20038;-81
2023/04/13 08:18:36;;;;;;;6.68;3.08;;;;;;;13.43;31.36;94255.41;5005595;28;20021;-81
2023/04/13 08:21:06;;;;;;;9.27;3.75;;;;;;;13.43;31.36;94258.16;4987603;28;20061;-81
2023/04/13 08:23:32;;;;;;;6.50;3.92;;;;;;;13.51;31.30;94257.31;5006093;28;20121;-81
2023/04/13 08:26:01;;;;;;;9.60;3.75;;;;;;;13.79;31.40;94248.81;5006023;28;20101;-81
2023/04/13 08:28:26;;;;;;;11.10;5.53;;;;;;;14.00;31.60;94242.16;5005899;28;20045;-81
2023/04/13 08:30:52;;;;;;;12.10;5.38;;;;;;;14.24;31.11;94244.06;5005823;28;20030;-82
2023/04/13 08:33:17;;;;;;;17.48;6.32;;;;;;;14.44;30.54;94248.91;5005286;28;20082;-82
2023/04/13 08:35:42;;;;;;;12.13;5.47;;;;;;;14.56;30.48;94236.81;4987265;28;20030;-83
2023/04/13 08:38:08;;;;;;;14.93;7.53;;;;;;;14.71;29.83;94237.53;5004881;28;20584;-82
2023/04/13 08:40:38;;;;;;;12.63;6.47;;;;;;;14.91;29.96;94245.13;5004356;28;20307;-81
2023/04/13 08:43:04;;;;;;;11.07;5.30;;;;;;;15.30;29.27;94225.50;5006178;28;20026;-81
2023/04/13 08:45:30;;;;;;;9.70;6.15;;;;;;;15.59;29.50;94236.41;5009800;28;20026;-82
2023/04/13 08:48:00;;;;;;;10.13;4.72;;;;;;;15.86;29.09;94240.78;5003575;28;20075;-83
2023/04/13 08:50:26;;;;;;;20.58;9.18;;;;;;;16.15;28.47;94239.81;5003815;28;20037;-83
2023/04/13 08:52:53;;;;;;;13.00;5.65;;;;;;;16.52;28.15;94230.81;5003462;28;20101;-83
2023/04/13 08:55:18;;;;;;;6.43;4.50;;;;;;;16.79;27.80;94225.97;5005178;28;20105;-79
2023/04/13 08:57:47;;;;;;;11.27;6.10;;;;;;;17.05;27.40;94226.66;5004555;28;20477;-80
2023/04/13 09:00:16;;;;;;;15.30;6.38;;;;;;;17.29;27.28;94228.28;5004423;28;20056;-81
2023/04/13 09:02:47;;;;;;;14.48;7.35;;;;;;;17.67;27.09;94232.47;5003743;28;20094;-81
2023/04/13 09:05:14;;;;;;;10.05;3.88;;;;;;;17.67;26.35;94224.16;5003377;28;20140;-79
2023/04/13 09:07:41;;;;;;;9.20;4.13;;;;;;;18.12;26.29;94224.25;5004591;28;20030;-82
2023/04/13 09:10:08;;;;;;;7.05;4.07;;;;;;;18.47;25.94;94223.81;5003473;28;20520;-82
2023/04/13 09:12:33;;;;;;;10.35;4.43;;;;;;;18.60;25.82;94214.94;5004838;28;20046;-82
2023/04/13 09:14:59;;;;;;;9.88;5.55;;;;;;;18.56;25.09;94213.16;5003426;28;20052;-82
2023/04/13 09:17:26;;;;;;;9.98;5.03;;;;;;;18.74;25.51;94211.16;5003259;28;20033;-81
2023/04/13 09:19:52;;;;;;;11.50;4.68;;;;;;;19.04;25.83;94219.75;5003720;28;20052;-80
2023/04/13 09:22:17;;;;;;;8.43;4.47;;;;;;;19.52;25.62;94219.34;5004442;28;20034;-83
2023/04/13 09:24:43;;;;;;;11.45;4.60;;;;;;;19.95;25.28;94209.78;5005057;28;20026;-82
2023/04/13 09:27:19;;;;;;;8.75;4.68;;;;;;;20.33;24.42;94203.19;5004278;28;20045;-81
2023/04/13 09:29:54;;;;;;;10.68;4.72;;;;;;;20.66;24.02;94207.03;5004886;28;20072;-83
2023/04/13 09:32:27;;;;;;;10.85;4.60;;;;;;;20.86;23.90;94201.00;5003452;28;20041;-82
2023/04/13 09:34:57;;;;;;;8.48;4.75;;;;;;;21.16;23.75;94200.97;5002382;28;20022;-82
2023/04/13 09:37:22;;;;;;;8.32;4.07;;;;;;;21.38;23.28;94194.38;5004004;28;20500;-82
2023/04/13 09:39:48;;;;;;;9.60;4.18;;;;;;;21.68;23.07;94183.09;5012943;28;20026;-82
2023/04/13 09:42:16;;;;;;;6.60;4.03;;;;;;;21.99;23.30;94184.47;5004597;28;20029;-82
2023/04/13 09:44:42;;;;;;;9.38;3.92;;;;;;;22.30;22.43;94178.69;5004658;28;20512;-83
2023/04/13 09:47:07;;;;;;;9.02;4.07;;;;;;;22.60;21.96;94179.25;5004219;28;20026;-84
2023/04/13 09:49:40;;;;;;;9.68;4.18;;;;;;;22.95;21.77;94180.97;4987038;28;20026;-83
2023/04/13 09:52:16;;;;;;;6.93;3.67;;;;;;;23.15;21.78;94176.78;5002771;28;20026;-85
2023/04/13 09:54:42;;;;;;;8.85;4.18;;;;;;;23.43;21.51;94170.63;5005018;28;20037;-82
2023/04/13 09:57:08;;;;;;;8.73;4.18;;;;;;;23.65;20.74;94165.91;5004036;28;20026;-83
2023/04/13 09:59:33;;;;;;;8.85;4.30;;;;;;;23.62;20.74;94155.72;5004248;28;20107;-83
2023/04/13 10:02:01;;;;;;;12.63;3.70;;;;;;;23.77;21.17;94153.16;5003463;28;20037;-85
2023/04/13 10:04:26;;;;;;;10.82;4.20;;;;;;;23.98;20.44;94156.78;5003349;28;20034;-85
2023/04/13 10:06:52;;;;;;;8.20;4.68;;;;;;;24.21;20.40;94145.03;5003725;28;20041;-83
2023/04/13 10:09:19;;;;;;;6.95;3.88;;;;;;;24.52;20.64;94148.91;5002815;28;20025;-83
2023/04/13 10:11:46;;;;;;;11.52;3.83;;;;;;;24.70;20.14;94153.56;5008420;28;20125;-86
2023/04/13 10:14:24;;;;;;;9.40;3.90;;;;;;;24.84;19.66;94149.38;5007689;28;20022;-82
2023/04/13 10:17:15;;;;;;;6.40;3.75;;;;;;;24.96;19.96;94160.34;5007853;28;20448;-85
2023/04/13 10:19:44;;;;;;;10.07;3.80;;;;;;;24.98;19.51;94146.47;5008403;28;20069;-83
2023/04/13 10:22:10;;;;;;;10.65;4.07;;;;;;;25.16;19.45;94148.31;5007147;28;20030;-85
2023/04/13 10:24:37;;;;;;;10.13;3.80;;;;;;;25.25;19.38;94152.69;5007853;28;20021;-84
2023/04/13 10:27:29;;;;;;;7.75;4.00;;;;;;;25.45;18.96;94151.88;5006094;28;20089;-84
2023/04/13 10:29:54;;;;;;;7.25;3.58;;;;;;;25.58;18.87;94136.94;5007359;28;20038;-84
2023/04/13 10:32:24;;;;;;;9.73;4.03;;;;;;;25.65;18.56;94136.22;5008272;28;20037;-83
2023/04/13 10:34:50;;;;;;;7.93;3.25;;;;;;;25.87;18.83;94137.66;5015307;28;20018;-87
2023/04/13 10:37:21;;;;;;;10.38;3.50;;;;;;;26.20;18.58;94133.03;5007904;28;20483;-86
2023/04/13 10:39:47;;;;;;;6.53;3.15;;;;;;;26.48;17.97;94132.19;5006064;28;20316;-84
2023/04/13 10:42:13;;;;;;;6.57;3.13;;;;;;;26.39;17.86;94124.28;5006624;28;20033;-84
2023/04/13 10:44:49;;;;;;;6.10;3.33;;;;;;;26.72;18.15;94123.22;5007858;28;20058;-85
2023/04/13 10:47:19;;;;;;;6.45;3.83;;;;;;;27.17;17.51;94121.69;5007109;28;20095;-85
2023/04/13 10:49:46;;;;;;;8.82;3.83;;;;;;;27.59;17.99;94124.03;5006184;28;20117;-86
2023/04/13 10:52:12;;;;;;;8.25;3.60;;;;;;;28.02;17.23;94128.59;5022680;28;20495;-87
2023/04/13 10:54:39;;;;;;;7.88;3.50;;;;;;;28.45;16.59;94114.66;5006207;28;20128;-85
2023/04/13 10:57:07;;;;;;;6.20;3.25;;;;;;;28.93;15.38;94114.50;5006903;28;20026;-84
2023/04/13 10:59:55;;;;;;;6.55;3.20;;;;;;;29.49;14.81;94117.72;5006248;28;20467;-84
2023/04/13 11:02:24;;;;;;;5.95;2.80;;;;;;;29.94;15.18;94115.75;5006013;28;20535;-84
2023/04/13 11:04:50;;;;;;;8.63;4.03;;;;;;;30.50;14.31;94113.84;5005562;28;20061;-85
2023/04/13 11:07:22;;;;;;;5.93;3.10;;;;;;;31.02;13.51;94110.03;5007102;28;20105;-85
2023/04/13 11:09:49;;;;;;;8.75;2.25;;;;;;;31.40;13.24;94103.72;5007578;28;20044;-85
2023/04/13 11:12:15;;;;;;;4.10;2.60;;;;;;;32.06;13.61;94101.53;5020197;28;20117;-86
2023/04/13 11:14:45;;;;;;;7.30;2.78;;;;;;;33.09;12.49;94100.91;5012650;28;20033;-85
2023/04/13 11:17:13;;;;;;;4.10;1.90;;;;;;;32.93;11.97;94109.09;5007734;28;20037;-86
2023/04/13 11:19:47;;;;;;;5.22;2.33;;;;;;;33.31;11.67;94105.25;5006919;28;20164;-85
2023/04/13 11:22:17;;;;;;;4.72;2.30;;;;;;;33.84;11.14;94086.03;5005224;28;20069;-86
2023/04/13 11:24:44;;;;;;;4.03;1.98;;;;;;;34.50;11.34;94091.72;5006878;28;20026;-86
2023/04/13 11:27:23;;;;;;;3.40;2.17;;;;;;;35.08;10.76;94091.03;5006790;28;20499;-86
2023/04/13 11:29:59;;;;;;;3.80;1.90;;;;;;;35.64;10.18;94086.50;5017022;28;20034;-86
2023/04/13 11:32:25;;;;;;;5.97;1.95;;;;;;;35.93;10.23;94091.03;5005115;28;20046;-86
2023/04/13 11:35:03;;;;;;;3.47;2.05;;;;;;;35.39;10.29;94076.47;5005085;28;20064;-86